sensor_id;sensor_type;location;lat;lon;timestamp;temperature;humidity
54518;DHT22;40423;53.176;6.002;2022-08-19T00:00:16;16.50;99.90
54518;DHT22;40423;53.176;6.002;2022-08-19T00:02:42;16.40;99.90
54518;DHT22;40423;53.176;6.002;2022-08-19T00:05:10;16.40;99.90
54518;DHT22;40423;53.176;6.002;2022-08-19T00:07:36;16.40;99.90
54518;DHT22;40423;53.176;6.002;2022-08-19T00:10:05;16.40;99.90
54518;DHT22;40423;53.176;6.002;2022-08-19T00:12:31;16.40;99.90
54518;DHT22;40423;53.176;6.002;2022-08-19T00:14:57;16.40;99.90
54518;DHT22;40423;53.176;6.002;2022-08-19T00:17:22;16.40;99.90
54518;DHT22;40423;53.176;6.002;2022-08-19T00:19:48;16.30;99.90
54518;DHT22;40423;53.176;6.002;2022-08-19T00:22:14;16.30;99.90
54518;DHT22;40423;53.176;6.002;2022-08-19T00:24:41;16.30;99.90
54518;DHT22;40423;53.176;6.002;2022-08-19T00:27:08;16.20;99.90
54518;DHT22;40423;53.176;6.002;2022-08-19T00:29:34;16.20;99.90
54518;DHT22;40423;53.176;6.002;2022-08-19T00:32:00;16.20;99.90
54518;DHT22;40423;53.176;6.002;2022-08-19T00:34:26;16.20;99.90
54518;DHT22;40423;53.176;6.002;2022-08-19T00:36:56;16.10;99.90
54518;DHT22;40423;53.176;6.002;2022-08-19T00:39:22;16.10;99.90
54518;DHT22;40423;53.176;6.002;2022-08-19T00:41:49;16.10;99.90
54518;DHT22;40423;53.176;6.002;2022-08-19T00:44:22;16.10;99.90
54518;DHT22;40423;53.176;6.002;2022-08-19T00:46:50;16.00;99.90
54518;DHT22;40423;53.176;6.002;2022-08-19T00:51:52;15.90;99.90
54518;DHT22;40423;53.176;6.002;2022-08-19T00:54:19;15.90;99.90
54518;DHT22;40423;53.176;6.002;2022-08-19T00:56:45;15.90;99.90
54518;DHT22;40423;53.176;6.002;2022-08-19T00:59:11;15.90;99.90
54518;DHT22;40423;53.176;6.002;2022-08-19T01:01:39;15.90;99.90
54518;DHT22;40423;53.176;6.002;2022-08-19T01:04:06;15.90;99.90
54518;DHT22;40423;53.176;6.002;2022-08-19T01:06:32;15.80;99.90
54518;DHT22;40423;53.176;6.002;2022-08-19T01:08:59;15.80;99.90
54518;DHT22;40423;53.176;6.002;2022-08-19T01:11:27;15.80;99.90
54518;DHT22;40423;53.176;6.002;2022-08-19T01:13:53;15.80;99.90
54518;DHT22;40423;53.176;6.002;2022-08-19T01:16:22;15.80;99.90
54518;DHT22;40423;53.176;6.002;2022-08-19T01:18:50;15.80;99.90
54518;DHT22;40423;53.176;6.002;2022-08-19T01:21:31;15.70;99.90
54518;DHT22;40423;53.176;6.002;2022-08-19T01:23:58;15.80;99.90
54518;DHT22;40423;53.176;6.002;2022-08-19T01:26:25;15.70;99.90
54518;DHT22;40423;53.176;6.002;2022-08-19T01:28:55;15.80;99.90
54518;DHT22;40423;53.176;6.002;2022-08-19T01:31:24;15.80;99.90
54518;DHT22;40423;53.176;6.002;2022-08-19T01:33:52;15.70;99.90
54518;DHT22;40423;53.176;6.002;2022-08-19T01:38:52;15.70;99.90
54518;DHT22;40423;53.176;6.002;2022-08-19T01:41:18;15.70;99.90
54518;DHT22;40423;53.176;6.002;2022-08-19T01:43:45;15.70;99.90
54518;DHT22;40423;53.176;6.002;2022-08-19T01:46:11;15.70;99.90
54518;DHT22;40423;53.176;6.002;2022-08-19T01:48:40;15.70;99.90
54518;DHT22;40423;53.176;6.002;2022-08-19T01:51:07;15.70;99.90
54518;DHT22;40423;53.176;6.002;2022-08-19T01:53:34;15.70;99.90
54518;DHT22;40423;53.176;6.002;2022-08-19T01:56:01;15.70;99.90
54518;DHT22;40423;53.176;6.002;2022-08-19T01:58:30;15.60;99.90
54518;DHT22;40423;53.176;6.002;2022-08-19T02:00:58;15.60;99.90
54518;DHT22;40423;53.176;6.002;2022-08-19T02:03:24;15.60;99.90
54518;DHT22;40423;53.176;6.002;2022-08-19T02:05:58;15.60;99.90
54518;DHT22;40423;53.176;6.002;2022-08-19T02:08:26;15.50;99.90
54518;DHT22;40423;53.176;6.002;2022-08-19T02:10:52;15.50;99.90
54518;DHT22;40423;53.176;6.002;2022-08-19T02:13:19;15.50;99.90
54518;DHT22;40423;53.176;6.002;2022-08-19T02:15:44;15.50;99.90
54518;DHT22;40423;53.176;6.002;2022-08-19T02:18:10;15.50;99.90
54518;DHT22;40423;53.176;6.002;2022-08-19T02:20:37;15.50;99.90
54518;DHT22;40423;53.176;6.002;2022-08-19T02:23:04;15.50;99.90
54518;DHT22;40423;53.176;6.002;2022-08-19T02:25:31;15.40;99.90
54518;DHT22;40423;53.176;6.002;2022-08-19T02:27:56;15.40;99.90
54518;DHT22;40423;53.176;6.002;2022-08-19T02:30:22;15.40;99.90
54518;DHT22;40423;53.176;6.002;2022-08-19T02:32:50;15.40;99.90
54518;DHT22;40423;53.176;6.002;2022-08-19T02:35:16;15.40;99.90
54518;DHT22;40423;53.176;6.002;2022-08-19T02:37:43;15.30;99.90
54518;DHT22;40423;53.176;6.002;2022-08-19T02:40:32;15.30;99.90
54518;DHT22;40423;53.176;6.002;2022-08-19T02:43:02;15.30;99.90
54518;DHT22;40423;53.176;6.002;2022-08-19T02:45:35;15.20;99.90
54518;DHT22;40423;53.176;6.002;2022-08-19T02:48:01;15.20;99.90
54518;DHT22;40423;53.176;6.002;2022-08-19T02:50:27;15.20;99.90
54518;DHT22;40423;53.176;6.002;2022-08-19T02:52:53;15.20;99.90
54518;DHT22;40423;53.176;6.002;2022-08-19T02:55:19;15.10;99.90
54518;DHT22;40423;53.176;6.002;2022-08-19T02:57:46;15.10;99.90
54518;DHT22;40423;53.176;6.002;2022-08-19T03:00:12;15.10;99.90
54518;DHT22;40423;53.176;6.002;2022-08-19T03:02:39;15.10;99.90
54518;DHT22;40423;53.176;6.002;2022-08-19T03:05:06;15.20;99.90
54518;DHT22;40423;53.176;6.002;2022-08-19T03:07:32;15.10;99.90
54518;DHT22;40423;53.176;6.002;2022-08-19T03:09:58;15.20;99.90
54518;DHT22;40423;53.176;6.002;2022-08-19T03:12:24;15.20;99.90
54518;DHT22;40423;53.176;6.002;2022-08-19T03:14:49;15.20;99.90
54518;DHT22;40423;53.176;6.002;2022-08-19T03:17:16;15.20;99.90
54518;DHT22;40423;53.176;6.002;2022-08-19T03:19:42;15.20;99.90
54518;DHT22;40423;53.176;6.002;2022-08-19T03:22:08;15.20;99.90
54518;DHT22;40423;53.176;6.002;2022-08-19T03:24:34;15.20;99.90
54518;DHT22;40423;53.176;6.002;2022-08-19T03:27:00;15.10;99.90
54518;DHT22;40423;53.176;6.002;2022-08-19T03:29:27;15.10;99.90
54518;DHT22;40423;53.176;6.002;2022-08-19T03:31:53;15.10;99.90
54518;DHT22;40423;53.176;6.002;2022-08-19T03:34:25;15.10;99.90
54518;DHT22;40423;53.176;6.002;2022-08-19T03:36:56;15.10;99.90
54518;DHT22;40423;53.176;6.002;2022-08-19T03:39:23;15.10;99.90
54518;DHT22;40423;53.176;6.002;2022-08-19T03:41:50;15.10;99.90
54518;DHT22;40423;53.176;6.002;2022-08-19T03:44:19;15.10;99.90
54518;DHT22;40423;53.176;6.002;2022-08-19T03:46:53;15.10;99.90
54518;DHT22;40423;53.176;6.002;2022-08-19T03:49:22;15.10;99.90
54518;DHT22;40423;53.176;6.002;2022-08-19T03:51:49;15.10;99.90
54518;DHT22;40423;53.176;6.002;2022-08-19T03:54:18;15.10;99.90
54518;DHT22;40423;53.176;6.002;2022-08-19T03:56:46;15.10;99.90
54518;DHT22;40423;53.176;6.002;2022-08-19T03:59:24;15.10;99.90
54518;DHT22;40423;53.176;6.002;2022-08-19T04:01:53;15.20;99.90
54518;DHT22;40423;53.176;6.002;2022-08-19T04:04:19;15.10;99.90
54518;DHT22;40423;53.176;6.002;2022-08-19T04:06:44;15.10;99.90
54518;DHT22;40423;53.176;6.002;2022-08-19T04:09:13;15.20;99.90
54518;DHT22;40423;53.176;6.002;2022-08-19T04:11:45;15.20;99.90
54518;DHT22;40423;53.176;6.002;2022-08-19T04:14:14;15.20;99.90
54518;DHT22;40423;53.176;6.002;2022-08-19T04:16:41;15.20;99.90
54518;DHT22;40423;53.176;6.002;2022-08-19T04:19:08;15.20;99.90
54518;DHT22;40423;53.176;6.002;2022-08-19T04:21:34;15.20;99.90
54518;DHT22;40423;53.176;6.002;2022-08-19T04:24:00;15.20;99.90
54518;DHT22;40423;53.176;6.002;2022-08-19T04:26:31;15.20;99.90
54518;DHT22;40423;53.176;6.002;2022-08-19T04:28:58;15.20;99.90
54518;DHT22;40423;53.176;6.002;2022-08-19T04:31:27;15.20;99.90
54518;DHT22;40423;53.176;6.002;2022-08-19T04:33:58;15.20;99.90
54518;DHT22;40423;53.176;6.002;2022-08-19T04:36:27;15.20;99.90
54518;DHT22;40423;53.176;6.002;2022-08-19T04:39:01;15.20;99.90
54518;DHT22;40423;53.176;6.002;2022-08-19T04:41:27;15.20;99.90
54518;DHT22;40423;53.176;6.002;2022-08-19T04:44:13;15.20;99.90
54518;DHT22;40423;53.176;6.002;2022-08-19T04:46:40;15.20;99.90
54518;DHT22;40423;53.176;6.002;2022-08-19T04:49:06;15.20;99.90
54518;DHT22;40423;53.176;6.002;2022-08-19T04:51:33;15.30;99.90
54518;DHT22;40423;53.176;6.002;2022-08-19T04:54:01;15.30;99.90
54518;DHT22;40423;53.176;6.002;2022-08-19T04:56:27;15.30;99.90
54518;DHT22;40423;53.176;6.002;2022-08-19T04:58:54;15.30;99.90
54518;DHT22;40423;53.176;6.002;2022-08-19T05:01:28;15.30;99.90
54518;DHT22;40423;53.176;6.002;2022-08-19T05:03:55;15.30;99.90
54518;DHT22;40423;53.176;6.002;2022-08-19T05:06:22;15.30;99.90
54518;DHT22;40423;53.176;6.002;2022-08-19T05:08:48;15.40;99.90
54518;DHT22;40423;53.176;6.002;2022-08-19T05:11:18;15.40;99.90
54518;DHT22;40423;53.176;6.002;2022-08-19T05:13:46;15.40;99.90
54518;DHT22;40423;53.176;6.002;2022-08-19T05:16:13;15.40;99.90
54518;DHT22;40423;53.176;6.002;2022-08-19T05:18:40;15.40;99.90
54518;DHT22;40423;53.176;6.002;2022-08-19T05:21:25;15.50;99.90
54518;DHT22;40423;53.176;6.002;2022-08-19T05:24:10;15.50;99.90
54518;DHT22;40423;53.176;6.002;2022-08-19T05:26:41;15.60;99.90
54518;DHT22;40423;53.176;6.002;2022-08-19T05:29:08;15.60;99.90
54518;DHT22;40423;53.176;6.002;2022-08-19T05:31:35;15.60;99.90
54518;DHT22;40423;53.176;6.002;2022-08-19T05:34:02;15.70;99.90
54518;DHT22;40423;53.176;6.002;2022-08-19T05:36:34;15.70;99.90
54518;DHT22;40423;53.176;6.002;2022-08-19T05:39:00;15.80;99.90
54518;DHT22;40423;53.176;6.002;2022-08-19T05:41:26;15.80;99.90
54518;DHT22;40423;53.176;6.002;2022-08-19T05:44:02;15.90;99.90
54518;DHT22;40423;53.176;6.002;2022-08-19T05:46:28;15.90;99.90
54518;DHT22;40423;53.176;6.002;2022-08-19T05:48:55;16.00;99.90
54518;DHT22;40423;53.176;6.002;2022-08-19T05:51:23;16.10;99.90
54518;DHT22;40423;53.176;6.002;2022-08-19T05:53:48;16.10;99.90
54518;DHT22;40423;53.176;6.002;2022-08-19T05:56:15;16.20;99.90
54518;DHT22;40423;53.176;6.002;2022-08-19T05:58:42;16.30;99.90
54518;DHT22;40423;53.176;6.002;2022-08-19T06:01:12;16.30;99.90
54518;DHT22;40423;53.176;6.002;2022-08-19T06:03:38;16.40;99.90
54518;DHT22;40423;53.176;6.002;2022-08-19T06:06:06;16.50;99.90
54518;DHT22;40423;53.176;6.002;2022-08-19T06:08:34;16.50;99.90
54518;DHT22;40423;53.176;6.002;2022-08-19T06:11:23;16.60;99.90
54518;DHT22;40423;53.176;6.002;2022-08-19T06:13:52;16.70;99.90
54518;DHT22;40423;53.176;6.002;2022-08-19T06:16:19;16.80;99.90
54518;DHT22;40423;53.176;6.002;2022-08-19T06:18:48;16.80;99.90
54518;DHT22;40423;53.176;6.002;2022-08-19T06:21:24;16.90;99.90
54518;DHT22;40423;53.176;6.002;2022-08-19T06:23:50;17.00;99.90
54518;DHT22;40423;53.176;6.002;2022-08-19T06:26:18;17.10;99.90
54518;DHT22;40423;53.176;6.002;2022-08-19T06:28:45;17.10;99.90
54518;DHT22;40423;53.176;6.002;2022-08-19T06:31:15;17.20;99.90
54518;DHT22;40423;53.176;6.002;2022-08-19T06:33:43;17.30;99.90
54518;DHT22;40423;53.176;6.002;2022-08-19T06:38:44;17.50;99.90
54518;DHT22;40423;53.176;6.002;2022-08-19T06:41:10;17.50;99.90
54518;DHT22;40423;53.176;6.002;2022-08-19T06:43:36;17.60;99.90
54518;DHT22;40423;53.176;6.002;2022-08-19T06:46:02;17.70;99.90
54518;DHT22;40423;53.176;6.002;2022-08-19T06:48:29;17.80;99.90
54518;DHT22;40423;53.176;6.002;2022-08-19T06:50:55;17.90;99.90
54518;DHT22;40423;53.176;6.002;2022-08-19T06:53:21;18.00;99.90
54518;DHT22;40423;53.176;6.002;2022-08-19T06:55:47;18.00;99.90
54518;DHT22;40423;53.176;6.002;2022-08-19T06:58:13;18.20;99.90
54518;DHT22;40423;53.176;6.002;2022-08-19T07:00:40;18.20;99.90
54518;DHT22;40423;53.176;6.002;2022-08-19T07:03:05;18.30;99.90
54518;DHT22;40423;53.176;6.002;2022-08-19T07:05:31;18.40;99.90
54518;DHT22;40423;53.176;6.002;2022-08-19T07:07:57;18.50;99.90
54518;DHT22;40423;53.176;6.002;2022-08-19T07:10:23;18.60;99.90
54518;DHT22;40423;53.176;6.002;2022-08-19T07:12:49;18.70;99.90
54518;DHT22;40423;53.176;6.002;2022-08-19T07:15:15;18.80;99.90
54518;DHT22;40423;53.176;6.002;2022-08-19T07:17:42;18.90;99.90
54518;DHT22;40423;53.176;6.002;2022-08-19T07:20:09;19.00;99.90
54518;DHT22;40423;53.176;6.002;2022-08-19T07:22:39;19.10;99.90
54518;DHT22;40423;53.176;6.002;2022-08-19T07:25:08;19.20;99.90
54518;DHT22;40423;53.176;6.002;2022-08-19T07:27:34;19.30;99.90
54518;DHT22;40423;53.176;6.002;2022-08-19T07:30:00;19.50;99.90
54518;DHT22;40423;53.176;6.002;2022-08-19T07:32:26;19.60;99.90
54518;DHT22;40423;53.176;6.002;2022-08-19T07:34:52;19.80;99.90
54518;DHT22;40423;53.176;6.002;2022-08-19T07:37:18;20.00;99.90
54518;DHT22;40423;53.176;6.002;2022-08-19T07:39:44;20.10;99.90
54518;DHT22;40423;53.176;6.002;2022-08-19T07:42:10;20.20;99.90
54518;DHT22;40423;53.176;6.002;2022-08-19T07:44:37;20.40;99.90
54518;DHT22;40423;53.176;6.002;2022-08-19T07:47:03;20.40;99.90
54518;DHT22;40423;53.176;6.002;2022-08-19T07:49:29;20.50;99.90
54518;DHT22;40423;53.176;6.002;2022-08-19T07:52:01;20.60;99.90
54518;DHT22;40423;53.176;6.002;2022-08-19T07:54:30;20.70;99.90
54518;DHT22;40423;53.176;6.002;2022-08-19T07:56:56;20.80;99.90
54518;DHT22;40423;53.176;6.002;2022-08-19T07:59:23;20.90;99.90
54518;DHT22;40423;53.176;6.002;2022-08-19T08:01:49;20.90;99.90
54518;DHT22;40423;53.176;6.002;2022-08-19T08:04:16;21.00;99.90
54518;DHT22;40423;53.176;6.002;2022-08-19T08:07:01;21.00;99.90
54518;DHT22;40423;53.176;6.002;2022-08-19T08:09:46;21.10;99.90
54518;DHT22;40423;53.176;6.002;2022-08-19T08:12:25;21.20;99.90
54518;DHT22;40423;53.176;6.002;2022-08-19T08:14:56;21.30;99.90
54518;DHT22;40423;53.176;6.002;2022-08-19T08:17:25;21.20;99.90
54518;DHT22;40423;53.176;6.002;2022-08-19T08:19:51;21.50;99.90
54518;DHT22;40423;53.176;6.002;2022-08-19T08:22:19;21.60;99.90
54518;DHT22;40423;53.176;6.002;2022-08-19T08:25:07;21.70;99.90
54518;DHT22;40423;53.176;6.002;2022-08-19T08:27:42;21.80;99.90
54518;DHT22;40423;53.176;6.002;2022-08-19T08:30:16;21.90;99.90
54518;DHT22;40423;53.176;6.002;2022-08-19T08:32:42;22.00;99.90
54518;DHT22;40423;53.176;6.002;2022-08-19T08:35:13;22.10;99.90
54518;DHT22;40423;53.176;6.002;2022-08-19T08:37:39;22.20;99.90
54518;DHT22;40423;53.176;6.002;2022-08-19T08:40:18;22.30;99.90
54518;DHT22;40423;53.176;6.002;2022-08-19T08:42:55;22.40;99.90
54518;DHT22;40423;53.176;6.002;2022-08-19T08:45:26;22.40;99.90
54518;DHT22;40423;53.176;6.002;2022-08-19T08:47:54;22.50;99.90
54518;DHT22;40423;53.176;6.002;2022-08-19T08:50:27;22.50;99.90
54518;DHT22;40423;53.176;6.002;2022-08-19T08:52:56;22.60;99.90
54518;DHT22;40423;53.176;6.002;2022-08-19T08:55:27;22.60;99.90
54518;DHT22;40423;53.176;6.002;2022-08-19T08:58:21;22.80;99.90
54518;DHT22;40423;53.176;6.002;2022-08-19T09:00:49;23.10;99.90
54518;DHT22;40423;53.176;6.002;2022-08-19T09:03:20;23.10;99.90
54518;DHT22;40423;53.176;6.002;2022-08-19T09:09:00;23.20;99.90
54518;DHT22;40423;53.176;6.002;2022-08-19T09:11:49;23.30;99.90
54518;DHT22;40423;53.176;6.002;2022-08-19T09:17:13;23.60;99.90
54518;DHT22;40423;53.176;6.002;2022-08-19T09:22:15;23.90;99.90
54518;DHT22;40423;53.176;6.002;2022-08-19T09:24:41;24.10;99.90
54518;DHT22;40423;53.176;6.002;2022-08-19T09:27:07;24.20;99.90
54518;DHT22;40423;53.176;6.002;2022-08-19T09:29:32;24.30;99.90
54518;DHT22;40423;53.176;6.002;2022-08-19T09:31:58;24.40;99.90
54518;DHT22;40423;53.176;6.002;2022-08-19T09:34:24;24.50;99.90
54518;DHT22;40423;53.176;6.002;2022-08-19T09:36:50;24.60;99.90
54518;DHT22;40423;53.176;6.002;2022-08-19T09:39:18;24.70;99.90
54518;DHT22;40423;53.176;6.002;2022-08-19T09:41:44;24.60;99.90
54518;DHT22;40423;53.176;6.002;2022-08-19T09:44:10;24.80;99.90
54518;DHT22;40423;53.176;6.002;2022-08-19T09:46:38;24.80;99.90
54518;DHT22;40423;53.176;6.002;2022-08-19T09:49:04;24.90;99.90
54518;DHT22;40423;53.176;6.002;2022-08-19T09:51:32;24.90;99.90
54518;DHT22;40423;53.176;6.002;2022-08-19T09:54:02;25.00;99.90
54518;DHT22;40423;53.176;6.002;2022-08-19T09:56:29;25.10;99.90
54518;DHT22;40423;53.176;6.002;2022-08-19T09:58:58;25.20;99.90
54518;DHT22;40423;53.176;6.002;2022-08-19T10:01:26;25.20;99.90
54518;DHT22;40423;53.176;6.002;2022-08-19T10:03:54;25.20;99.90
54518;DHT22;40423;53.176;6.002;2022-08-19T10:06:22;25.30;99.90
54518;DHT22;40423;53.176;6.002;2022-08-19T10:08:49;25.40;99.90
54518;DHT22;40423;53.176;6.002;2022-08-19T10:11:15;25.30;99.90
54518;DHT22;40423;53.176;6.002;2022-08-19T10:13:43;25.30;99.90
54518;DHT22;40423;53.176;6.002;2022-08-19T10:16:12;25.20;99.90
54518;DHT22;40423;53.176;6.002;2022-08-19T10:18:39;25.20;99.90
54518;DHT22;40423;53.176;6.002;2022-08-19T10:21:22;25.30;99.90
54518;DHT22;40423;53.176;6.002;2022-08-19T10:23:50;25.40;99.90
54518;DHT22;40423;53.176;6.002;2022-08-19T10:26:21;25.50;99.90
54518;DHT22;40423;53.176;6.002;2022-08-19T10:28:48;25.50;99.90
54518;DHT22;40423;53.176;6.002;2022-08-19T10:31:23;25.50;99.90
54518;DHT22;40423;53.176;6.002;2022-08-19T10:33:50;25.30;99.90
54518;DHT22;40423;53.176;6.002;2022-08-19T10:36:22;25.30;99.90
54518;DHT22;40423;53.176;6.002;2022-08-19T10:38:51;25.30;99.90
54518;DHT22;40423;53.176;6.002;2022-08-19T10:41:21;25.20;99.90
54518;DHT22;40423;53.176;6.002;2022-08-19T10:43:53;25.30;99.90
54518;DHT22;40423;53.176;6.002;2022-08-19T10:46:21;25.40;99.90
54518;DHT22;40423;53.176;6.002;2022-08-19T10:48:47;25.30;99.90
54518;DHT22;40423;53.176;6.002;2022-08-19T10:51:14;25.20;99.90
54518;DHT22;40423;53.176;6.002;2022-08-19T10:53:59;25.10;99.90
54518;DHT22;40423;53.176;6.002;2022-08-19T10:56:26;25.00;99.90
54518;DHT22;40423;53.176;6.002;2022-08-19T10:59:10;24.90;99.90
54518;DHT22;40423;53.176;6.002;2022-08-19T11:01:39;25.00;99.90
54518;DHT22;40423;53.176;6.002;2022-08-19T11:04:06;25.10;99.90
54518;DHT22;40423;53.176;6.002;2022-08-19T11:06:36;25.10;99.90
54518;DHT22;40423;53.176;6.002;2022-08-19T11:09:02;24.90;99.90
54518;DHT22;40423;53.176;6.002;2022-08-19T11:11:28;24.90;99.90
54518;DHT22;40423;53.176;6.002;2022-08-19T11:13:54;24.90;99.90
54518;DHT22;40423;53.176;6.002;2022-08-19T11:16:23;25.30;99.90
54518;DHT22;40423;53.176;6.002;2022-08-19T11:18:57;25.60;99.90
54518;DHT22;40423;53.176;6.002;2022-08-19T11:21:36;25.60;99.90
54518;DHT22;40423;53.176;6.002;2022-08-19T11:24:06;25.60;99.90
54518;DHT22;40423;53.176;6.002;2022-08-19T11:26:35;25.50;99.90
54518;DHT22;40423;53.176;6.002;2022-08-19T11:29:02;25.30;99.90
54518;DHT22;40423;53.176;6.002;2022-08-19T11:31:33;25.30;99.90
54518;DHT22;40423;53.176;6.002;2022-08-19T11:34:04;25.20;99.90
54518;DHT22;40423;53.176;6.002;2022-08-19T11:36:30;25.10;99.90
54518;DHT22;40423;53.176;6.002;2022-08-19T11:38:58;25.10;99.90
54518;DHT22;40423;53.176;6.002;2022-08-19T11:41:24;25.10;99.90
54518;DHT22;40423;53.176;6.002;2022-08-19T11:43:51;25.00;99.90
54518;DHT22;40423;53.176;6.002;2022-08-19T11:46:22;25.00;99.90
54518;DHT22;40423;53.176;6.002;2022-08-19T11:48:49;25.00;99.90
54518;DHT22;40423;53.176;6.002;2022-08-19T11:51:21;24.90;99.90
54518;DHT22;40423;53.176;6.002;2022-08-19T11:53:48;24.90;99.90
54518;DHT22;40423;53.176;6.002;2022-08-19T11:56:16;24.80;99.90
54518;DHT22;40423;53.176;6.002;2022-08-19T11:58:42;24.70;99.90
54518;DHT22;40423;53.176;6.002;2022-08-19T12:01:08;24.60;99.90
54518;DHT22;40423;53.176;6.002;2022-08-19T12:03:35;24.50;99.90
54518;DHT22;40423;53.176;6.002;2022-08-19T12:06:10;24.40;99.90
54518;DHT22;40423;53.176;6.002;2022-08-19T12:08:37;24.30;99.90
54518;DHT22;40423;53.176;6.002;2022-08-19T12:11:03;24.30;99.90
54518;DHT22;40423;53.176;6.002;2022-08-19T12:13:30;24.20;99.90
54518;DHT22;40423;53.176;6.002;2022-08-19T12:15:56;24.20;99.90
54518;DHT22;40423;53.176;6.002;2022-08-19T12:18:22;24.10;99.90
54518;DHT22;40423;53.176;6.002;2022-08-19T12:20:51;24.20;99.90
54518;DHT22;40423;53.176;6.002;2022-08-19T12:23:17;24.10;99.90
54518;DHT22;40423;53.176;6.002;2022-08-19T12:25:45;24.10;99.90
54518;DHT22;40423;53.176;6.002;2022-08-19T12:28:21;24.10;99.90
54518;DHT22;40423;53.176;6.002;2022-08-19T12:30:48;24.10;99.90
54518;DHT22;40423;53.176;6.002;2022-08-19T12:33:17;24.10;99.90
54518;DHT22;40423;53.176;6.002;2022-08-19T12:35:44;24.00;99.90
54518;DHT22;40423;53.176;6.002;2022-08-19T12:38:12;24.00;99.90
54518;DHT22;40423;53.176;6.002;2022-08-19T12:40:38;23.90;99.90
54518;DHT22;40423;53.176;6.002;2022-08-19T12:43:08;23.90;99.90
54518;DHT22;40423;53.176;6.002;2022-08-19T12:45:33;23.80;99.90
54518;DHT22;40423;53.176;6.002;2022-08-19T12:47:59;23.70;99.90
54518;DHT22;40423;53.176;6.002;2022-08-19T12:50:25;23.60;99.90
54518;DHT22;40423;53.176;6.002;2022-08-19T12:52:51;23.60;99.90
54518;DHT22;40423;53.176;6.002;2022-08-19T12:55:17;23.60;99.90
54518;DHT22;40423;53.176;6.002;2022-08-19T12:57:44;23.60;99.90
54518;DHT22;40423;53.176;6.002;2022-08-19T13:00:18;23.60;99.90
54518;DHT22;40423;53.176;6.002;2022-08-19T13:02:48;23.50;99.90
54518;DHT22;40423;53.176;6.002;2022-08-19T13:05:24;23.50;99.90
54518;DHT22;40423;53.176;6.002;2022-08-19T13:07:52;23.50;99.90
54518;DHT22;40423;53.176;6.002;2022-08-19T13:10:20;23.50;99.90
54518;DHT22;40423;53.176;6.002;2022-08-19T13:12:49;23.50;99.90
54518;DHT22;40423;53.176;6.002;2022-08-19T13:15:17;23.50;99.90
54518;DHT22;40423;53.176;6.002;2022-08-19T13:17:47;23.50;99.90
54518;DHT22;40423;53.176;6.002;2022-08-19T13:20:15;23.50;99.90
54518;DHT22;40423;53.176;6.002;2022-08-19T13:22:41;23.50;99.90
54518;DHT22;40423;53.176;6.002;2022-08-19T13:25:08;23.50;99.90
54518;DHT22;40423;53.176;6.002;2022-08-19T13:27:35;23.50;99.90
54518;DHT22;40423;53.176;6.002;2022-08-19T13:30:02;23.50;99.90
54518;DHT22;40423;53.176;6.002;2022-08-19T13:32:47;23.50;99.90
54518;DHT22;40423;53.176;6.002;2022-08-19T13:35:31;23.60;99.90
54518;DHT22;40423;53.176;6.002;2022-08-19T13:37:57;23.70;99.90
54518;DHT22;40423;53.176;6.002;2022-08-19T13:40:24;23.70;99.90
54518;DHT22;40423;53.176;6.002;2022-08-19T13:42:54;23.80;99.90
54518;DHT22;40423;53.176;6.002;2022-08-19T13:45:22;23.90;99.90
54518;DHT22;40423;53.176;6.002;2022-08-19T13:47:53;23.90;99.90
54518;DHT22;40423;53.176;6.002;2022-08-19T13:50:24;23.90;99.90
54518;DHT22;40423;53.176;6.002;2022-08-19T13:52:52;23.90;99.90
54518;DHT22;40423;53.176;6.002;2022-08-19T13:55:18;23.90;99.90
54518;DHT22;40423;53.176;6.002;2022-08-19T13:57:43;23.90;99.90
54518;DHT22;40423;53.176;6.002;2022-08-19T14:00:13;23.80;99.90
54518;DHT22;40423;53.176;6.002;2022-08-19T14:02:39;23.70;99.90
54518;DHT22;40423;53.176;6.002;2022-08-19T14:05:08;23.70;99.90
54518;DHT22;40423;53.176;6.002;2022-08-19T14:07:34;23.70;99.90
54518;DHT22;40423;53.176;6.002;2022-08-19T14:10:02;23.70;99.90
54518;DHT22;40423;53.176;6.002;2022-08-19T14:12:28;23.60;99.90
54518;DHT22;40423;53.176;6.002;2022-08-19T14:14:54;23.60;99.90
54518;DHT22;40423;53.176;6.002;2022-08-19T14:17:19;23.60;99.90
54518;DHT22;40423;53.176;6.002;2022-08-19T14:19:45;23.60;99.90
54518;DHT22;40423;53.176;6.002;2022-08-19T14:22:11;23.70;99.90
54518;DHT22;40423;53.176;6.002;2022-08-19T14:24:39;23.70;99.90
54518;DHT22;40423;53.176;6.002;2022-08-19T14:27:06;23.70;99.90
54518;DHT22;40423;53.176;6.002;2022-08-19T14:29:33;23.80;99.90
54518;DHT22;40423;53.176;6.002;2022-08-19T14:31:59;23.90;99.90
54518;DHT22;40423;53.176;6.002;2022-08-19T14:34:26;24.00;99.90
54518;DHT22;40423;53.176;6.002;2022-08-19T14:36:52;24.00;99.90
54518;DHT22;40423;53.176;6.002;2022-08-19T14:39:18;24.10;99.90
54518;DHT22;40423;53.176;6.002;2022-08-19T14:41:44;24.30;99.90
54518;DHT22;40423;53.176;6.002;2022-08-19T14:44:11;24.40;99.90
54518;DHT22;40423;53.176;6.002;2022-08-19T14:46:38;24.50;99.90
54518;DHT22;40423;53.176;6.002;2022-08-19T14:49:04;24.60;99.90
54518;DHT22;40423;53.176;6.002;2022-08-19T14:51:30;24.50;99.90
54518;DHT22;40423;53.176;6.002;2022-08-19T14:53:56;24.50;99.90
54518;DHT22;40423;53.176;6.002;2022-08-19T14:56:25;24.60;99.90
54518;DHT22;40423;53.176;6.002;2022-08-19T14:58:52;24.60;99.90
54518;DHT22;40423;53.176;6.002;2022-08-19T15:01:19;24.60;99.90
54518;DHT22;40423;53.176;6.002;2022-08-19T15:03:46;24.50;99.90
54518;DHT22;40423;53.176;6.002;2022-08-19T15:06:12;24.40;99.90
54518;DHT22;40423;53.176;6.002;2022-08-19T15:08:42;24.20;99.90
54518;DHT22;40423;53.176;6.002;2022-08-19T15:11:10;24.20;99.90
54518;DHT22;40423;53.176;6.002;2022-08-19T15:13:37;24.20;99.90
54518;DHT22;40423;53.176;6.002;2022-08-19T15:16:04;24.20;99.90
54518;DHT22;40423;53.176;6.002;2022-08-19T15:18:30;24.20;99.90
54518;DHT22;40423;53.176;6.002;2022-08-19T15:20:56;24.10;99.90
54518;DHT22;40423;53.176;6.002;2022-08-19T15:23:22;24.20;99.90
54518;DHT22;40423;53.176;6.002;2022-08-19T15:25:48;24.10;99.90
54518;DHT22;40423;53.176;6.002;2022-08-19T15:28:18;24.10;99.90
54518;DHT22;40423;53.176;6.002;2022-08-19T15:30:44;24.10;99.90
54518;DHT22;40423;53.176;6.002;2022-08-19T15:33:11;24.10;99.90
54518;DHT22;40423;53.176;6.002;2022-08-19T15:35:43;24.10;99.90
54518;DHT22;40423;53.176;6.002;2022-08-19T15:38:10;24.10;99.90
54518;DHT22;40423;53.176;6.002;2022-08-19T15:40:38;24.10;99.90
54518;DHT22;40423;53.176;6.002;2022-08-19T15:43:04;24.10;99.90
54518;DHT22;40423;53.176;6.002;2022-08-19T15:45:30;23.90;99.90
54518;DHT22;40423;53.176;6.002;2022-08-19T15:48:03;23.90;99.90
54518;DHT22;40423;53.176;6.002;2022-08-19T15:50:29;23.90;99.90
54518;DHT22;40423;53.176;6.002;2022-08-19T15:53:06;23.90;99.90